TimeCDT,TemperatureF,Dew PointF,Humidity,Sea Level PressureIn,VisibilityMPH,Wind Direction,Wind SpeedMPH,Gust SpeedMPH,PrecipitationIn,Events,Conditions,WindDirDegrees,DateUTC
12:52 AM,52.0,41.0,66,29.95,10.0,South,3.5,-,N/A,,Clear,190,2013-05-09 05:52:00
1:52 AM,50.0,39.9,68,29.95,10.0,Calm,Calm,-,N/A,,Clear,0,2013-05-09 06:52:00
2:52 AM,48.9,42.1,77,29.95,10.0,Calm,Calm,-,N/A,,Clear,0,2013-05-09 07:52:00
3:52 AM,50.0,44.1,80,29.94,10.0,Calm,Calm,-,N/A,,Clear,0,2013-05-09 08:52:00
4:52 AM,50.0,44.1,80,29.94,10.0,Calm,Calm,-,N/A,,Clear,0,2013-05-09 09:52:00
5:52 AM,54.0,46.0,75,29.94,10.0,Calm,Calm,-,N/A,,Clear,0,2013-05-09 10:52:00
6:52 AM,55.0,46.9,74,29.95,9.0,NE,3.5,-,N/A,,Clear,50,2013-05-09 11:52:00
7:52 AM,57.0,48.9,74,29.97,10.0,East,3.5,-,N/A,,Clear,80,2013-05-09 12:52:00
8:52 AM,54.0,42.1,64,29.97,10.0,East,8.1,-,N/A,,Mostly Cloudy,90,2013-05-09 13:52:00
9:52 AM,55.0,44.1,67,29.96,10.0,ESE,4.6,-,0.00,,Mostly Cloudy,110,2013-05-09 14:52:00
10:52 AM,60.1,46.0,60,29.96,10.0,SE,6.9,-,N/A,,Overcast,140,2013-05-09 15:52:00
11:52 AM,64.9,48.0,54,29.95,10.0,North,-9999.0,-,N/A,,Mostly Cloudy,0,2013-05-09 16:52:00
1:52 PM,64.9,48.9,56,29.92,10.0,East,5.8,-,N/A,,Scattered Clouds,100,2013-05-09 18:52:00
3:52 PM,63.0,48.9,60,29.89,10.0,Calm,Calm,-,0.00,,Overcast,0,2013-05-09 20:52:00
4:44 PM,59.0,53.6,82,29.91,2.0,Calm,Calm,-,0.03,Rain,Light Rain,0,2013-05-09 21:44:00
4:52 PM,60.1,55.0,83,29.91,4.0,Calm,Calm,-,0.03,Rain,Light Rain,0,2013-05-09 21:52:00
5:52 PM,55.9,55.0,97,29.89,3.0,NNE,5.8,-,0.02,Rain,Light Rain,30,2013-05-09 22:52:00
7:38 PM,48.2,44.6,87,29.90,6.0,NNE,10.4,18.4,0.01,Rain,Light Rain,20,2013-05-10 00:38:00
7:52 PM,46.9,44.1,90,29.90,7.0,NNE,11.5,-,0.01,Rain,Light Rain,30,2013-05-10 00:52:00
9:52 PM,44.1,43.0,96,29.91,8.0,NNE,12.7,18.4,0.03,Rain,Light Rain,20,2013-05-10 02:52:00
10:00 PM,44.6,42.8,93,29.90,6.0,NNE,12.7,19.6,0.01,Rain,Light Rain,20,2013-05-10 03:00:00
10:44 PM,44.6,42.8,93,29.88,5.0,North,10.4,18.4,0.05,Rain,Light Rain,10,2013-05-10 03:44:00
10:52 PM,44.1,43.0,96,29.89,5.0,NNE,11.5,19.6,0.06,Rain,Light Rain,20,2013-05-10 03:52:00
11:02 PM,44.6,42.8,93,29.88,5.0,NNE,12.7,19.6,0.02,Rain,Rain,30,2013-05-10 04:02:00